createdAt,value
2018-09-27T00:00:13.371Z,4.35
2018-09-27T00:02:44.350Z,8.48
2018-09-27T00:05:15.904Z,6.25
2018-09-27T00:07:48.188Z,8.53
2018-09-27T00:10:20.876Z,8.63
2018-09-27T00:12:51.180Z,7.58
2018-09-27T00:15:25.003Z,5.83
2018-09-27T00:17:56.519Z,6.37
2018-09-27T00:20:26.483Z,6.90
2018-09-27T00:22:57.001Z,8.88
2018-09-27T00:25:27.822Z,6.83
2018-09-27T00:28:00.645Z,5.78
2018-09-27T00:30:35.017Z,7.90
2018-09-27T00:33:06.990Z,6.80
2018-09-27T00:35:38.751Z,6.35
2018-09-27T00:38:10.906Z,6.45
2018-09-27T00:40:40.936Z,7.22
2018-09-27T00:43:13.073Z,6.90
2018-09-27T00:45:43.814Z,8.18
2018-09-27T00:48:19.142Z,6.95
2018-09-27T00:50:49.350Z,6.00
2018-09-27T00:53:21.628Z,7.65
2018-09-27T00:55:52.195Z,7.33
2018-09-27T00:58:22.333Z,7.37
2018-09-27T01:00:53.049Z,7.53
2018-09-27T01:03:23.720Z,7.87
2018-09-27T01:05:55.036Z,6.15
2018-09-27T01:08:26.266Z,9.03
2018-09-27T01:10:57.110Z,4.20
2018-09-27T01:13:28.784Z,4.70
2018-09-27T01:16:01.998Z,5.42
2018-09-27T01:18:32.173Z,10.38
2018-09-27T01:21:02.221Z,10.05
2018-09-27T01:23:34.731Z,8.33
2018-09-27T01:26:04.797Z,9.48
2018-09-27T01:28:37.172Z,9.43
2018-09-27T01:31:10.071Z,9.60
2018-09-27T01:33:39.944Z,6.87
2018-09-27T01:36:10.819Z,8.28
2018-09-27T01:38:42.068Z,9.05
2018-09-27T01:41:16.265Z,8.53
2018-09-27T01:43:49.369Z,7.75
2018-09-27T01:46:19.682Z,8.50
2018-09-27T01:48:49.486Z,7.53
2018-09-27T01:51:19.419Z,7.62
2018-09-27T01:53:49.290Z,9.15
2018-09-27T01:56:20.185Z,9.15
2018-09-27T01:58:50.083Z,9.15
2018-09-27T02:01:19.990Z,3.72
2018-09-27T02:03:49.978Z,8.75
2018-09-27T02:06:21.766Z,9.40
2018-09-27T02:08:51.670Z,6.20
2018-09-27T02:11:21.736Z,8.73
2018-09-27T02:13:51.780Z,7.55
2018-09-27T02:16:21.461Z,4.85
2018-09-27T02:18:51.611Z,6.62
2018-09-27T02:21:21.685Z,5.28
2018-09-27T02:23:51.680Z,9.28
2018-09-27T02:26:21.559Z,6.95
2018-09-27T02:28:51.604Z,8.40
2018-09-27T02:31:23.052Z,5.53
2018-09-27T02:33:53.359Z,7.42
2018-09-27T02:36:23.320Z,7.37
2018-09-27T02:38:53.400Z,7.28
2018-09-27T02:41:23.437Z,8.43
2018-09-27T02:43:54.167Z,7.85
2018-09-27T02:46:25.140Z,8.18
2018-09-27T02:48:55.022Z,6.97
2018-09-27T02:51:25.014Z,5.72
2018-09-27T02:53:55.113Z,7.75
2018-09-27T02:56:25.133Z,7.03
2018-09-27T02:58:55.965Z,6.55
2018-09-27T03:01:27.076Z,6.95
2018-09-27T03:03:58.007Z,7.08
2018-09-27T03:06:29.299Z,7.25
2018-09-27T03:08:58.789Z,6.30
2018-09-27T03:11:29.740Z,5.60
2018-09-27T03:14:01.048Z,4.62
2018-09-27T03:16:30.984Z,4.33
2018-09-27T03:19:01.126Z,7.03
2018-09-27T03:21:31.652Z,5.30
2018-09-27T03:24:02.299Z,6.20
2018-09-27T03:26:32.298Z,5.90
2018-09-27T03:29:04.928Z,5.87
2018-09-27T03:31:37.238Z,7.12
2018-09-27T03:34:07.536Z,5.67
2018-09-27T03:36:37.477Z,4.37
2018-09-27T03:39:11.881Z,5.95
2018-09-27T03:41:42.958Z,6.28
2018-09-27T03:44:12.945Z,6.35
2018-09-27T03:46:45.044Z,5.85
2018-09-27T03:49:14.999Z,5.90
2018-09-27T03:51:45.373Z,6.30
2018-09-27T03:54:16.286Z,4.42
2018-09-27T03:56:51.540Z,5.78
2018-09-27T03:59:21.447Z,5.97
2018-09-27T04:01:52.016Z,6.87
2018-09-27T04:04:22.299Z,5.65
2018-09-27T04:06:53.557Z,6.55
2018-09-27T04:09:26.308Z,7.97
2018-09-27T04:11:57.764Z,7.10
2018-09-27T04:14:27.841Z,7.30
2018-09-27T04:16:57.739Z,7.05
2018-09-27T04:19:28.513Z,7.25
2018-09-27T04:22:01.678Z,7.20
2018-09-27T04:24:32.759Z,7.78
2018-09-27T04:27:02.693Z,7.33
2018-09-27T04:29:33.105Z,8.43
2018-09-27T04:32:05.165Z,7.00
2018-09-27T04:34:36.718Z,7.42
2018-09-27T04:37:07.606Z,6.03
2018-09-27T04:39:37.669Z,5.60
2018-09-27T04:42:08.359Z,6.60
2018-09-27T04:44:38.533Z,5.90
2018-09-27T04:47:08.551Z,6.67
2018-09-27T04:49:39.300Z,6.20
2018-09-27T04:52:10.964Z,6.35
2018-09-27T04:54:43.673Z,6.72
2018-09-27T04:57:16.578Z,6.90
2018-09-27T04:59:46.672Z,4.33
2018-09-27T05:02:16.632Z,3.67
2018-09-27T05:04:46.662Z,5.80
2018-09-27T05:07:17.248Z,5.90
2018-09-27T05:09:47.768Z,4.35
2018-09-27T05:12:17.581Z,3.37
2018-09-27T05:14:49.408Z,4.65
2018-09-27T05:17:19.559Z,5.58
2018-09-27T05:19:49.787Z,4.37
2018-09-27T05:22:21.894Z,5.72
2018-09-27T05:24:53.159Z,6.90
2018-09-27T05:27:23.271Z,5.45
2018-09-27T05:29:53.591Z,6.30
2018-09-27T05:32:25.132Z,7.47
2018-09-27T05:34:55.791Z,6.42
2018-09-27T05:37:26.771Z,6.15
2018-09-27T05:39:57.350Z,7.50
2018-09-27T05:42:28.461Z,5.55
2018-09-27T05:44:58.468Z,6.70
2018-09-27T05:47:28.884Z,6.95
2018-09-27T05:50:01.774Z,6.12
2018-09-27T05:52:34.720Z,6.90
2018-09-27T05:55:05.858Z,7.00
2018-09-27T05:57:35.881Z,5.75
2018-09-27T06:00:08.695Z,6.37
2018-09-27T06:02:38.637Z,5.12
2018-09-27T06:05:08.568Z,5.70
2018-09-27T06:07:39.458Z,5.30
2018-09-27T06:10:10.333Z,6.47
2018-09-27T06:12:43.114Z,5.20
2018-09-27T06:15:13.763Z,4.78
2018-09-27T06:17:44.027Z,4.53
2018-09-27T06:20:14.066Z,5.08
2018-09-27T06:22:45.338Z,4.72
2018-09-27T06:25:15.434Z,4.95
2018-09-27T06:27:45.811Z,5.20
2018-09-27T06:30:16.088Z,4.62
2018-09-27T06:32:47.215Z,4.90
2018-09-27T06:35:19.209Z,5.05
2018-09-27T06:37:49.858Z,5.15
2018-09-27T06:40:20.028Z,5.65
2018-09-27T06:42:50.761Z,6.00
2018-09-27T06:45:23.025Z,7.35
2018-09-27T06:47:53.592Z,7.10
2018-09-27T06:50:25.235Z,7.72
2018-09-27T06:52:55.922Z,7.65
2018-09-27T06:55:28.160Z,6.37
2018-09-27T06:57:58.953Z,7.45
2018-09-27T07:00:29.007Z,9.18
2018-09-27T07:02:59.200Z,11.03
2018-09-27T07:05:31.046Z,11.65
2018-09-27T07:08:01.923Z,12.28
2018-09-27T07:10:32.552Z,11.03
2018-09-27T07:13:03.462Z,13.18
2018-09-27T07:16:15.419Z,14.38
2018-09-27T07:18:46.485Z,14.73
2018-09-27T07:21:19.333Z,13.43
2018-09-27T07:23:49.667Z,11.38
2018-09-27T07:26:21.244Z,13.50
2018-09-27T07:28:51.381Z,13.68
2018-09-27T07:31:21.714Z,14.63
2018-09-27T07:33:54.280Z,16.60
2018-09-27T07:37:21.063Z,15.00
2018-09-27T07:39:50.983Z,13.38
2018-09-27T07:42:23.576Z,12.82
2018-09-27T07:44:54.753Z,14.70
2018-09-27T07:47:24.931Z,14.90
2018-09-27T07:49:55.109Z,14.55
2018-09-27T07:52:25.722Z,12.93
2018-09-27T07:54:56.256Z,9.73
2018-09-27T07:57:34.971Z,11.50
2018-09-27T08:06:30.481Z,9.88
2018-09-27T08:09:01.691Z,10.20
2018-09-27T08:11:32.303Z,6.47
2018-09-27T08:14:02.462Z,10.63
2018-09-27T08:16:33.181Z,5.78
2018-09-27T08:19:05.891Z,10.53
2018-09-27T08:24:30.645Z,9.35
2018-09-27T08:27:02.232Z,10.13
2018-09-27T08:29:32.550Z,9.45
2018-09-27T08:32:03.205Z,10.58
2018-09-27T08:34:34.008Z,9.58
2018-09-27T08:40:10.103Z,10.28
2018-09-27T08:42:44.373Z,10.50
2018-09-27T08:45:27.879Z,9.35
2018-09-27T08:47:58.724Z,4.85
2018-09-27T08:50:29.077Z,6.35
2018-09-27T08:52:59.759Z,7.42
2018-09-27T08:56:41.740Z,8.58
2018-09-27T08:59:11.936Z,7.55
2018-09-27T09:01:41.951Z,5.60
2018-09-27T09:06:46.577Z,6.70
2018-09-27T09:09:16.848Z,6.00
2018-09-27T09:11:49.028Z,6.28
2018-09-27T09:14:20.014Z,5.58
2018-09-27T09:16:51.475Z,5.80
2018-09-27T09:19:21.524Z,6.67
2018-09-27T09:21:51.515Z,5.83
2018-09-27T09:24:22.671Z,6.55
2018-09-27T09:26:53.539Z,5.55
2018-09-27T09:29:24.185Z,6.58
2018-09-27T09:31:54.727Z,7.33
2018-09-27T09:34:24.621Z,9.60
2018-09-27T09:36:54.545Z,6.55
2018-09-27T09:39:25.506Z,8.95
2018-09-27T09:41:55.452Z,9.35
2018-09-27T09:44:25.425Z,8.13
2018-09-27T09:46:55.290Z,7.45
2018-09-27T09:49:25.497Z,11.73
2018-09-27T09:51:56.105Z,8.00
2018-09-27T09:54:26.146Z,6.60
2018-09-27T09:56:56.417Z,8.50
2018-09-27T09:59:27.615Z,4.72
2018-09-27T10:01:58.477Z,8.23
2018-09-27T10:04:29.212Z,10.55
2018-09-27T10:06:59.203Z,10.18
2018-09-27T10:09:30.379Z,9.13
2018-09-27T10:12:00.427Z,5.80
2018-09-27T10:14:31.186Z,6.67
2018-09-27T10:17:02.817Z,9.88
2018-09-27T10:19:33.361Z,8.38
2018-09-27T10:22:05.090Z,11.50
2018-09-27T10:24:35.514Z,9.38
2018-09-27T10:27:05.650Z,12.75
2018-09-27T10:29:35.864Z,13.48
2018-09-27T10:32:06.539Z,8.35
2018-09-27T10:34:36.854Z,12.78
2018-09-27T10:37:06.997Z,10.08
2018-09-27T10:39:38.044Z,13.68
2018-09-27T10:42:08.090Z,8.40
2018-09-27T10:44:38.700Z,8.30
2018-09-27T10:47:09.443Z,8.78
2018-09-27T10:49:39.370Z,8.95
2018-09-27T10:52:09.704Z,8.65
2018-09-27T10:54:40.319Z,7.80
2018-09-27T10:57:10.392Z,10.32
2018-09-27T10:59:40.474Z,7.08
2018-09-27T11:02:10.557Z,8.75
2018-09-27T11:04:40.591Z,7.95
2018-09-27T11:07:10.900Z,12.90
2018-09-27T11:09:41.032Z,8.43
2018-09-27T11:12:14.872Z,8.95
2018-09-27T11:14:45.559Z,9.35
2018-09-27T11:17:16.117Z,13.22
2018-09-27T11:19:47.301Z,10.30
2018-09-27T11:22:18.504Z,10.85
2018-09-27T11:24:48.999Z,10.35
2018-09-27T11:27:19.440Z,13.40
2018-09-27T11:29:54.484Z,12.15
2018-09-27T11:32:30.153Z,15.53
2018-09-27T11:35:10.229Z,10.03
2018-09-27T11:37:40.609Z,12.30
2018-09-27T11:40:12.071Z,10.55
2018-09-27T11:42:42.173Z,10.32
2018-09-27T11:45:21.126Z,9.93
2018-09-27T11:47:54.436Z,9.25
2018-09-27T11:50:24.727Z,10.45
2018-09-27T11:52:58.746Z,9.45
2018-09-27T11:55:29.564Z,10.10
2018-09-27T11:58:00.727Z,7.42
2018-09-27T12:00:31.736Z,9.28
2018-09-27T12:03:05.980Z,14.25
2018-09-27T12:05:36.600Z,10.82
2018-09-27T12:08:07.560Z,10.38
2018-09-27T12:10:38.595Z,10.88
2018-09-27T12:13:09.318Z,10.65
2018-09-27T12:15:39.538Z,8.55
2018-09-27T12:18:10.889Z,7.00
2018-09-27T12:20:42.324Z,8.15
2018-09-27T12:23:13.171Z,8.85
2018-09-27T12:28:25.730Z,8.35
2018-09-27T12:30:56.064Z,9.73
2018-09-27T12:33:26.458Z,5.87
2018-09-27T12:35:58.106Z,8.35
2018-09-27T12:38:29.723Z,5.78
2018-09-27T12:40:59.906Z,9.15
2018-09-27T12:43:30.318Z,5.62
2018-09-27T12:46:02.711Z,8.90
2018-09-27T12:48:32.615Z,6.90
2018-09-27T12:51:02.490Z,9.13
2018-09-27T12:53:32.317Z,9.48
2018-09-27T12:56:03.355Z,9.88
2018-09-27T12:58:33.756Z,7.10
2018-09-27T13:01:05.795Z,8.48
2018-09-27T13:03:36.218Z,12.45
2018-09-27T13:06:06.835Z,10.43
2018-09-27T13:08:38.544Z,10.88
2018-09-27T13:11:08.789Z,11.20
2018-09-27T13:13:44.743Z,11.90
2018-09-27T13:16:40.563Z,9.48
2018-09-27T13:19:10.931Z,13.32
2018-09-27T13:21:43.839Z,14.78
2018-09-27T13:24:15.122Z,13.30
2018-09-27T13:26:48.713Z,12.63
2018-09-27T13:29:21.883Z,13.93
2018-09-27T13:31:52.440Z,12.85
2018-09-27T13:34:22.773Z,9.73
2018-09-27T13:36:53.639Z,11.60
2018-09-27T13:39:26.083Z,8.58
2018-09-27T13:42:00.042Z,13.35
2018-09-27T13:44:30.318Z,12.98
2018-09-27T13:47:04.295Z,10.13
2018-09-27T13:49:38.085Z,13.95
2018-09-27T13:52:14.185Z,11.57
2018-09-27T13:57:20.595Z,12.98
2018-09-27T13:59:53.767Z,10.63
2018-09-27T14:02:25.116Z,9.85
2018-09-27T14:04:56.944Z,10.58
2018-09-27T14:07:27.338Z,9.53
2018-09-27T14:09:57.991Z,10.80
2018-09-27T14:12:29.554Z,8.75
2018-09-27T14:15:02.339Z,13.25
2018-09-27T14:17:34.016Z,10.70
2018-09-27T14:20:07.645Z,11.40
2018-09-27T14:22:39.220Z,9.93
2018-09-27T14:25:12.133Z,7.83
2018-09-27T14:27:44.443Z,11.53
2018-09-27T14:30:27.569Z,8.28
2018-09-27T14:32:58.875Z,11.48
2018-09-27T14:35:29.885Z,9.93
2018-09-27T14:38:00.061Z,11.18
2018-09-27T14:40:30.518Z,11.08
2018-09-27T14:43:01.019Z,9.25
2018-09-27T14:45:31.347Z,11.63
2018-09-27T14:48:01.694Z,9.45
2018-09-27T14:50:35.372Z,11.40
2018-09-27T14:53:08.380Z,6.42
2018-09-27T14:55:44.530Z,9.98
2018-09-27T14:58:15.459Z,10.98
2018-09-27T15:00:45.822Z,8.75
2018-09-27T15:03:15.837Z,10.63
2018-09-27T15:05:46.128Z,10.32
2018-09-27T15:08:16.286Z,9.88
2018-09-27T15:10:46.516Z,10.40
2018-09-27T15:13:16.976Z,9.88
2018-09-27T15:15:49.198Z,12.33
2018-09-27T15:18:21.853Z,9.45
2018-09-27T15:20:52.205Z,11.40
2018-09-27T15:23:23.244Z,12.88
2018-09-27T15:25:55.096Z,11.73
2018-09-27T15:28:25.640Z,12.90
2018-09-27T15:30:56.170Z,12.68
2018-09-27T15:33:26.077Z,14.47
2018-09-27T15:35:55.985Z,15.25
2018-09-27T15:38:26.084Z,13.10
2018-09-27T15:40:57.868Z,11.73
2018-09-27T15:43:28.064Z,15.05
2018-09-27T15:45:58.645Z,17.50
2018-09-27T15:48:30.346Z,15.65
2018-09-27T15:51:00.501Z,19.30
2018-09-27T15:53:30.404Z,12.05
2018-09-27T15:56:00.435Z,15.30
2018-09-27T15:58:30.647Z,15.15
2018-09-27T16:01:01.070Z,13.90
2018-09-27T16:03:32.098Z,16.95
2018-09-27T16:06:02.119Z,14.60
2018-09-27T16:08:32.657Z,14.33
2018-09-27T16:11:03.288Z,17.27
2018-09-27T16:13:33.423Z,14.70
2018-09-27T16:16:08.435Z,19.87
2018-09-27T16:18:38.851Z,20.70
2018-09-27T16:21:10.378Z,14.70
2018-09-27T16:23:43.039Z,13.08
2018-09-27T16:26:15.278Z,11.18
2018-09-27T16:28:46.509Z,12.43
2018-09-27T16:31:17.543Z,16.00
2018-09-27T16:33:55.412Z,15.18
2018-09-27T16:36:29.460Z,13.48
2018-09-27T16:39:02.229Z,13.58
2018-09-27T16:41:33.458Z,13.05
2018-09-27T16:44:07.078Z,13.72
2018-09-27T16:46:37.876Z,12.98
2018-09-27T16:49:10.965Z,8.78
2018-09-27T16:51:44.974Z,13.40
2018-09-27T16:54:16.478Z,11.08
2018-09-27T16:56:47.105Z,11.57
2018-09-27T16:59:18.657Z,11.43
2018-09-27T17:01:50.144Z,11.90
2018-09-27T17:04:24.060Z,9.40
2018-09-27T17:06:54.753Z,13.50
2018-09-27T17:09:39.040Z,10.20
2018-09-27T17:12:09.672Z,10.50
2018-09-27T17:14:39.798Z,9.15
2018-09-27T17:17:13.684Z,7.97
2018-09-27T17:19:47.162Z,8.85
2018-09-27T17:22:20.183Z,9.73
2018-09-27T17:24:53.592Z,14.33
2018-09-27T17:27:24.827Z,7.67
2018-09-27T17:29:55.691Z,8.75
2018-09-27T17:32:25.851Z,5.20
2018-09-27T17:34:55.960Z,5.47
2018-09-27T17:37:28.798Z,5.83
2018-09-27T17:39:59.527Z,5.70
2018-09-27T17:42:30.125Z,6.12
2018-09-27T17:45:00.590Z,4.97
2018-09-27T17:47:30.663Z,5.78
2018-09-27T17:50:03.594Z,5.33
2018-09-27T17:52:34.008Z,4.47
2018-09-27T17:55:06.552Z,4.50
2018-09-27T17:57:36.571Z,4.60
2018-09-27T18:00:06.710Z,4.95
2018-09-27T18:02:36.803Z,3.92
2018-09-27T18:05:18.814Z,5.08
2018-09-27T18:07:36.931Z,4.70
2018-09-27T18:10:06.854Z,6.33
2018-09-27T18:12:37.035Z,4.17
2018-09-27T18:15:07.408Z,5.25
2018-09-27T18:17:37.428Z,4.40
2018-09-27T18:20:10.406Z,5.25
2018-09-27T18:22:41.469Z,5.85
2018-09-27T18:25:11.536Z,3.50
2018-09-27T18:27:42.878Z,4.58
2018-09-27T18:30:16.089Z,3.02
2018-09-27T18:32:54.020Z,4.33
2018-09-27T18:35:29.981Z,2.15
2018-09-27T18:38:15.364Z,4.25
2018-09-27T18:40:46.074Z,3.00
2018-09-27T18:43:17.980Z,4.25
2018-09-27T18:46:07.812Z,4.08
2018-09-27T18:49:02.631Z,1.92
2018-09-27T18:51:33.155Z,2.45
2018-09-27T18:54:07.007Z,1.40
2018-09-27T18:56:39.078Z,3.20
2018-09-27T18:59:12.961Z,1.72
2018-09-27T19:01:44.305Z,2.27
2018-09-27T19:04:15.782Z,1.55
2018-09-27T19:06:48.607Z,1.92
2018-09-27T19:09:19.693Z,1.40
2018-09-27T19:11:51.290Z,1.57
2018-09-27T19:14:22.877Z,1.92
2018-09-27T19:16:54.815Z,1.85
2018-09-27T19:19:26.546Z,2.05
2018-09-27T19:21:56.646Z,1.92
2018-09-27T19:24:28.015Z,1.20
2018-09-27T19:26:59.341Z,1.50
2018-09-27T19:29:30.769Z,1.55
2018-09-27T19:32:03.339Z,1.90
2018-09-27T19:34:33.732Z,1.32
2018-09-27T19:37:05.361Z,1.90
2018-09-27T19:39:45.891Z,1.70
2018-09-27T19:42:17.258Z,1.82
2018-09-27T19:44:47.457Z,2.15
2018-09-27T19:47:17.880Z,2.08
2018-09-27T19:49:49.825Z,2.33
2018-09-27T19:52:20.703Z,3.08
2018-09-27T19:54:50.865Z,3.05
2018-09-27T19:57:21.711Z,3.10
2018-09-27T19:59:52.166Z,3.92
2018-09-27T20:02:22.201Z,5.65
2018-09-27T20:04:52.438Z,5.80
2018-09-27T20:07:22.744Z,6.87
2018-09-27T20:09:53.758Z,7.92
2018-09-27T20:12:24.423Z,9.28
2018-09-27T20:14:54.690Z,10.35
2018-09-27T20:17:24.654Z,8.30
2018-09-27T20:19:56.017Z,12.98
2018-09-27T20:22:27.386Z,16.05
2018-09-27T20:24:57.713Z,14.03
2018-09-27T20:27:28.813Z,10.23
2018-09-27T20:29:59.447Z,17.92
2018-09-27T20:32:29.868Z,17.23
2018-09-27T20:35:00.177Z,16.82
2018-09-27T20:37:31.246Z,18.67
2018-09-27T20:40:02.183Z,18.15
2018-09-27T20:42:33.466Z,18.60
2018-09-27T20:45:03.233Z,18.87
2018-09-27T20:47:34.110Z,13.98
2018-09-27T20:50:05.315Z,17.85
2018-09-27T20:52:36.163Z,22.13
2018-09-27T20:55:07.066Z,18.65
2018-09-27T20:57:37.310Z,20.02
2018-09-27T21:00:08.354Z,20.48
2018-09-27T21:02:40.131Z,16.62
2018-09-27T21:05:10.712Z,21.70
2018-09-27T21:07:41.709Z,18.95
2018-09-27T21:10:11.971Z,18.27
2018-09-27T21:12:41.788Z,18.98
2018-09-27T21:15:13.818Z,18.70
2018-09-27T21:17:45.606Z,10.45
2018-09-27T21:20:15.718Z,18.62
2018-09-27T21:22:46.737Z,16.52
2018-09-27T21:25:19.157Z,14.00
2018-09-27T21:27:50.419Z,9.58
2018-09-27T21:30:24.123Z,11.68
2018-09-27T21:32:54.795Z,11.10
2018-09-27T21:35:28.027Z,4.62
2018-09-27T21:37:58.350Z,5.67
2018-09-27T21:40:31.385Z,7.72
2018-09-27T21:43:01.686Z,6.42
2018-09-27T21:45:35.774Z,4.65
2018-09-27T21:48:08.893Z,3.95
2018-09-27T21:50:39.599Z,4.20
2018-09-27T21:53:13.090Z,5.83
2018-09-27T21:55:46.419Z,3.08
2018-09-27T21:58:17.291Z,5.00
2018-09-27T22:00:52.362Z,4.15
2018-09-27T22:03:26.840Z,3.22
2018-09-27T22:05:57.656Z,4.83
2018-09-27T22:08:28.759Z,3.80
2018-09-27T22:11:02.396Z,4.45
2018-09-27T22:13:34.258Z,5.05
2018-09-27T22:16:05.260Z,4.00
2018-09-27T22:18:35.930Z,3.92
2018-09-27T22:21:07.854Z,4.62
2018-09-27T22:23:39.732Z,3.52
2018-09-27T22:26:14.746Z,5.03
2018-09-27T22:28:45.515Z,5.05
2018-09-27T22:31:17.966Z,3.08
2018-09-27T22:33:48.641Z,4.35
2018-09-27T22:36:18.598Z,5.15
2018-09-27T22:38:48.636Z,4.75
2018-09-27T22:41:18.676Z,5.28
2018-09-27T22:43:49.684Z,3.75
2018-09-27T22:46:21.731Z,3.08
2018-09-27T22:49:38.660Z,3.05
2018-09-27T22:52:09.129Z,2.30
2018-09-27T22:54:39.916Z,2.37
2018-09-27T22:57:10.346Z,2.60
2018-09-27T22:59:42.328Z,3.37
2018-09-27T23:02:13.988Z,2.35
2018-09-27T23:04:43.868Z,3.00
2018-09-27T23:07:14.127Z,2.40
2018-09-27T23:09:46.369Z,1.90
2018-09-27T23:12:16.284Z,1.98
2018-09-27T23:14:47.451Z,1.17
2018-09-27T23:17:17.695Z,1.20
2018-09-27T23:19:49.587Z,1.00
2018-09-27T23:22:21.686Z,1.27
2018-09-27T23:24:51.916Z,0.65
2018-09-27T23:27:22.102Z,1.30
2018-09-27T23:29:53.002Z,1.55
2018-09-27T23:32:25.309Z,1.00
2018-09-27T23:34:55.221Z,1.20
2018-09-27T23:37:26.802Z,1.20
2018-09-27T23:39:56.701Z,0.53
2018-09-27T23:42:27.092Z,0.50
2018-09-27T23:44:58.148Z,0.65
2018-09-27T23:47:28.057Z,0.70
2018-09-27T23:49:58.011Z,0.68
2018-09-27T23:52:29.200Z,0.80
2018-09-27T23:55:00.151Z,0.53
2018-09-27T23:57:30.141Z,1.40
